createdAt,value
2023-04-26T00:00:00.217Z,7.90
2023-04-26T00:05:05.337Z,8.00
2023-04-26T00:10:10.904Z,8.70
2023-04-26T00:15:16.210Z,8.00
2023-04-26T00:20:20.436Z,8.70
2023-04-26T00:25:24.304Z,8.90
2023-04-26T00:30:29.654Z,8.55
2023-04-26T00:35:33.484Z,8.73
2023-04-26T00:40:37.460Z,9.15
2023-04-26T00:45:43.097Z,9.77
2023-04-26T00:50:48.537Z,7.68
2023-04-26T00:55:53.815Z,9.02
2023-04-26T01:00:59.546Z,8.80
2023-04-26T01:06:03.426Z,9.55
2023-04-26T01:11:07.790Z,8.63
2023-04-26T01:16:15.238Z,8.05
2023-04-26T01:21:22.301Z,8.57
2023-04-26T01:26:27.690Z,8.82
2023-04-26T01:31:31.656Z,9.48
2023-04-26T01:36:35.693Z,9.40
2023-04-26T01:41:41.331Z,8.93
2023-04-26T01:46:45.398Z,10.23
2023-04-26T01:51:50.072Z,10.55
2023-04-26T01:56:55.355Z,9.48
2023-04-26T02:01:59.371Z,9.93
2023-04-26T02:07:03.610Z,9.35
2023-04-26T02:12:09.027Z,8.30
2023-04-26T02:17:12.926Z,8.85
2023-04-26T02:22:17.569Z,7.97
2023-04-26T02:27:22.862Z,8.55
2023-04-26T02:32:26.871Z,7.97
2023-04-26T02:37:30.855Z,7.57
2023-04-26T02:42:36.101Z,7.13
2023-04-26T02:47:40.312Z,6.72
2023-04-26T02:52:44.311Z,6.05
2023-04-26T02:57:49.805Z,7.07
2023-04-26T03:02:53.924Z,7.00
2023-04-26T03:07:58.636Z,6.15
2023-04-26T03:13:04.530Z,6.10
2023-04-26T03:18:08.697Z,6.43
2023-04-26T03:23:13.252Z,6.13
2023-04-26T03:28:18.612Z,5.28
2023-04-26T03:33:22.904Z,5.40
2023-04-26T03:38:27.008Z,5.75
2023-04-26T03:43:32.598Z,5.32
2023-04-26T03:48:37.447Z,5.30
2023-04-26T03:53:42.538Z,4.53
2023-04-26T03:58:47.938Z,4.83
2023-04-26T04:03:52.132Z,4.32
2023-04-26T04:08:56.396Z,5.63
2023-04-26T04:14:02.973Z,4.60
2023-04-26T04:19:06.985Z,4.45
2023-04-26T04:24:11.547Z,4.25
2023-04-26T04:29:16.879Z,4.55
2023-04-26T04:34:20.969Z,3.85
2023-04-26T04:39:26.824Z,3.95
2023-04-26T04:44:32.754Z,4.05
2023-04-26T04:49:37.525Z,3.97
2023-04-26T04:54:41.552Z,4.25
2023-04-26T04:59:47.196Z,3.95
2023-04-26T05:04:51.521Z,3.90
2023-04-26T05:09:56.318Z,3.42
2023-04-26T05:15:01.877Z,4.63
2023-04-26T05:20:06.994Z,4.20
2023-04-26T05:25:11.882Z,4.22
2023-04-26T05:30:18.239Z,4.30
2023-04-26T05:35:26.348Z,4.50
2023-04-26T05:40:30.350Z,4.85
2023-04-26T05:45:35.975Z,5.03
2023-04-26T05:50:40.176Z,4.35
2023-04-26T05:55:44.870Z,3.78
2023-04-26T06:00:50.378Z,4.57
2023-04-26T06:05:55.250Z,3.80
2023-04-26T06:11:00.399Z,4.10
2023-04-26T06:16:07.154Z,4.38
2023-04-26T06:21:11.045Z,4.32
2023-04-26T06:26:14.969Z,4.10
2023-04-26T06:31:21.904Z,4.60
2023-04-26T06:36:28.259Z,4.63
2023-04-26T06:46:38.358Z,4.57
2023-04-26T06:51:45.141Z,4.45
2023-04-26T06:56:49.006Z,4.38
2023-04-26T07:01:54.529Z,4.90
2023-04-26T07:06:58.468Z,4.63
2023-04-26T07:12:02.649Z,4.22
2023-04-26T07:17:08.040Z,4.95
2023-04-26T07:22:12.163Z,4.43
2023-04-26T07:27:16.426Z,4.70
2023-04-26T07:32:21.743Z,5.05
2023-04-26T07:37:25.672Z,3.80
2023-04-26T07:42:29.666Z,4.75
2023-04-26T07:47:34.985Z,4.45
2023-04-26T07:52:39.018Z,4.90
2023-04-26T07:57:43.241Z,4.85
2023-04-26T08:02:48.679Z,5.20
2023-04-26T08:07:52.801Z,4.57
2023-04-26T08:12:58.299Z,3.73
2023-04-26T08:18:03.890Z,4.30
2023-04-26T08:23:08.173Z,3.97
2023-04-26T08:28:14.597Z,3.38
2023-04-26T08:33:20.655Z,3.70
2023-04-26T08:38:24.994Z,3.15
2023-04-26T08:43:29.709Z,2.90
2023-04-26T08:48:37.564Z,3.47
2023-04-26T08:53:43.128Z,3.83
2023-04-26T08:58:47.277Z,3.22
2023-04-26T09:03:53.054Z,3.20
2023-04-26T09:08:58.785Z,2.20
2023-04-26T09:14:02.707Z,2.92
2023-04-26T09:19:08.196Z,3.13
2023-04-26T09:24:12.449Z,3.03
2023-04-26T09:29:17.877Z,2.97
2023-04-26T09:34:23.250Z,3.17
2023-04-26T09:39:34.363Z,3.10
2023-04-26T09:44:39.204Z,2.70
2023-04-26T09:49:48.918Z,2.83
2023-04-26T09:54:54.975Z,2.72
2023-04-26T10:00:00.971Z,3.05
2023-04-26T10:05:08.884Z,2.78
2023-04-26T10:10:13.662Z,3.15
2023-04-26T10:15:19.761Z,2.95
2023-04-26T10:20:28.360Z,2.72
2023-04-26T10:25:40.318Z,2.85
2023-04-26T10:30:57.647Z,2.58
2023-04-26T10:36:13.558Z,3.05
2023-04-26T10:41:36.119Z,2.70
2023-04-26T10:46:43.358Z,2.60
2023-04-26T10:52:17.204Z,2.45
2023-04-26T10:57:21.840Z,2.38
2023-04-26T11:02:48.319Z,2.88
2023-04-26T11:08:05.176Z,2.65
2023-04-26T11:13:09.203Z,2.53
2023-04-26T11:18:13.222Z,1.98
2023-04-26T11:23:19.872Z,1.85
2023-04-26T11:28:24.349Z,2.03
2023-04-26T11:33:28.484Z,2.17
2023-04-26T11:38:33.820Z,2.53
2023-04-26T11:43:39.019Z,1.95
2023-04-26T11:48:43.547Z,1.80
2023-04-26T11:53:48.763Z,3.75
2023-04-26T11:58:53.985Z,2.25
2023-04-26T12:03:59.681Z,2.10
2023-04-26T12:09:06.424Z,1.92
2023-04-26T12:14:11.587Z,2.10
2023-04-26T12:19:17.239Z,2.13
2023-04-26T12:24:26.665Z,1.77
2023-04-26T12:29:32.020Z,2.50
2023-04-26T12:34:36.005Z,2.55
2023-04-26T12:39:41.344Z,1.80
2023-04-26T12:44:45.312Z,1.75
2023-04-26T12:49:49.217Z,1.67
2023-04-26T12:54:54.756Z,1.73
2023-04-26T12:59:58.813Z,1.75
2023-04-26T13:05:06.510Z,2.00
2023-04-26T13:10:13.315Z,1.80
2023-04-26T13:15:17.925Z,1.77
2023-04-26T13:20:23.195Z,1.92
2023-04-26T13:25:30.387Z,2.40
2023-04-26T13:30:34.353Z,2.17
2023-04-26T13:35:38.270Z,1.75
2023-04-26T13:40:43.602Z,2.30
2023-04-26T13:45:47.531Z,2.45
2023-04-26T13:50:51.532Z,1.73
2023-04-26T13:55:56.804Z,1.75
2023-04-26T14:01:01.676Z,1.85
2023-04-26T14:06:06.087Z,2.13
2023-04-26T14:11:12.129Z,2.25
2023-04-26T14:16:17.358Z,5.22
2023-04-26T14:21:21.472Z,2.40
2023-04-26T14:26:27.475Z,2.22
2023-04-26T14:31:31.961Z,1.80
2023-04-26T14:36:36.894Z,2.13
2023-04-26T14:41:43.666Z,2.00
2023-04-26T14:46:47.776Z,2.15
2023-04-26T14:51:55.911Z,1.90
2023-04-26T14:57:01.469Z,2.20
2023-04-26T15:02:05.724Z,2.38
2023-04-26T15:07:15.283Z,2.10
2023-04-26T15:12:26.283Z,2.33
2023-04-26T15:17:33.025Z,2.65
2023-04-26T15:22:38.746Z,2.03
2023-04-26T15:32:50.627Z,2.10
2023-04-26T15:37:54.834Z,2.20
2023-04-26T15:43:00.156Z,2.42
2023-04-26T15:48:04.338Z,2.00
2023-04-26T15:53:08.288Z,1.83
2023-04-26T15:58:13.649Z,2.85
2023-04-26T16:03:18.203Z,2.92
2023-04-26T16:08:39.605Z,2.60
2023-04-26T16:13:45.801Z,2.30
2023-04-26T16:18:49.748Z,2.42
2023-04-26T16:23:53.651Z,2.42
2023-04-26T16:28:58.953Z,2.47
2023-04-26T16:34:03.014Z,2.95
2023-04-26T16:39:07.714Z,2.88
2023-04-26T16:44:13.131Z,4.85
2023-04-26T16:49:17.127Z,4.43
2023-04-26T16:54:21.419Z,2.80
2023-04-26T16:59:27.598Z,3.65
2023-04-26T17:04:32.161Z,3.85
2023-04-26T17:09:38.573Z,3.83
2023-04-26T17:14:44.133Z,4.05
2023-04-26T17:19:48.109Z,3.33
2023-04-26T17:24:52.080Z,3.65
2023-04-26T17:29:57.433Z,3.72
2023-04-26T17:35:01.460Z,3.92
2023-04-26T17:40:07.791Z,4.35
2023-04-26T17:45:14.829Z,4.50
2023-04-26T17:50:21.174Z,4.65
2023-04-26T17:55:25.219Z,4.05
2023-04-26T18:00:30.556Z,4.03
2023-04-26T18:05:34.684Z,4.72
2023-04-26T18:10:38.683Z,4.05
2023-04-26T18:15:44.240Z,5.53
2023-04-26T18:20:48.152Z,6.03
2023-04-26T18:25:52.134Z,5.50
2023-04-26T18:30:59.101Z,5.13
2023-04-26T18:36:03.084Z,5.03
2023-04-26T18:41:07.420Z,6.18
2023-04-26T18:46:12.855Z,5.18
2023-04-26T18:51:16.996Z,5.15
2023-04-26T18:56:21.027Z,30.15
2023-04-26T19:01:26.641Z,7.38
2023-04-26T19:06:31.562Z,22.13
2023-04-26T19:11:35.469Z,9.60
2023-04-26T19:16:40.856Z,7.85
2023-04-26T19:21:44.837Z,6.75
2023-04-26T19:26:48.727Z,7.22
2023-04-26T19:31:54.350Z,7.70
2023-04-26T19:36:58.556Z,6.07
2023-04-26T19:42:03.322Z,5.75
2023-04-26T19:47:09.018Z,5.05
2023-04-26T19:52:13.523Z,6.80
2023-04-26T19:57:17.690Z,8.52
2023-04-26T20:02:23.146Z,9.15
2023-04-26T20:07:27.679Z,10.93
2023-04-26T20:12:31.824Z,11.10
2023-04-26T20:17:37.564Z,11.38
2023-04-26T20:22:42.087Z,12.60
2023-04-26T20:27:47.218Z,10.27
2023-04-26T20:32:52.979Z,8.93
2023-04-26T20:37:57.594Z,7.20
2023-04-26T20:43:01.989Z,6.85
2023-04-26T20:48:07.820Z,6.93
2023-04-26T20:58:15.642Z,7.03
2023-04-26T21:03:21.112Z,8.18
2023-04-26T21:13:30.307Z,7.32
2023-04-26T21:18:35.993Z,8.70
2023-04-26T21:23:40.028Z,10.60
2023-04-26T21:28:43.989Z,14.00
2023-04-26T21:33:49.832Z,11.35
2023-04-26T21:38:53.810Z,13.15
2023-04-26T21:43:58.760Z,14.02
2023-04-26T21:49:04.087Z,12.93
2023-04-26T21:54:08.272Z,10.00
2023-04-26T21:59:12.557Z,8.63
2023-04-26T22:04:18.213Z,7.60
2023-04-26T22:09:22.575Z,7.85
2023-04-26T22:14:26.906Z,6.70
2023-04-26T22:19:32.226Z,7.10
2023-04-26T22:24:36.296Z,6.68
2023-04-26T22:29:40.511Z,7.47
2023-04-26T22:34:45.992Z,5.95
2023-04-26T22:39:50.254Z,7.25
2023-04-26T22:44:54.187Z,5.57
2023-04-26T22:49:59.693Z,6.35
2023-04-26T22:55:03.994Z,6.10
2023-04-26T23:00:12.644Z,6.57
2023-04-26T23:05:18.594Z,6.68
2023-04-26T23:10:22.804Z,6.10
2023-04-26T23:15:27.156Z,6.05
2023-04-26T23:20:32.507Z,5.80
2023-04-26T23:25:36.521Z,6.30
2023-04-26T23:30:40.780Z,5.93
2023-04-26T23:35:46.203Z,6.13
2023-04-26T23:40:50.250Z,6.30
2023-04-26T23:45:54.258Z,6.70
2023-04-26T23:51:00.338Z,6.32
2023-04-26T23:56:04.518Z,6.65
